Sovereign — 9HUE9 — position and weather

sailwx.info

Track history (hours):
 
Tides and Currents Weather Stations Pressure Air Temp Water Temp Dewpoint Dewpoint Depression Visibility Wind Speed Wind Dir Waves Ship Positions

Sovereign

Last reported at 2017-Aug-17 02:00 UTC. Time now 2017-Aug-17 02:07 UTC.
Position N 43°30' E 007°48'.

Length 268 m; draft 7.7 m.

Type: Passenger vessel. MMSI: 249539000.

Date/timePositionNaut miles runAvg speedWind from/ knotsBaromVisibWave heightAir tempDewpointWater temp
2017-Aug-17 02:00N 43°30' E 007°48'713.2
2017-Aug-17 01:30N 43°30' E 007°57'814.7
2017-Aug-17 00:58N 43°30' E 008°08'714.5
2017-Aug-17 00:30N 43°30' E 008°17'714.3
2017-Aug-17 00:00N 43°31' E 008°27'714.3
2017-Aug-16 23:30N 43°31' E 008°36'714.2
2017-Aug-16 23:00N 43°31' E 008°46'714.2
2017-Aug-16 22:30N 43°31' E 008°56'714.2
2017-Aug-16 22:00N 43°31' E 009°06'714.0
2017-Aug-16 21:31N 43°31' E 009°16'713.5
2017-Aug-16 21:01N 43°32' E 009°25'713.9
2017-Aug-16 20:30N 43°31' E 009°34'815.7
2017-Aug-16 20:00N 43°31' E 009°45'815.7
2017-Aug-16 19:30N 43°31' E 009°56'815.5
2017-Aug-16 19:00N 43°31' E 010°07'714.3
2017-Aug-16 18:30N 43°32' E 010°16'2 3.2
2017-Aug-16 18:00N 43°33' E 010°18'0 0.1
2017-Aug-16 17:30N 43°33' E 010°18'0 0.0
2017-Aug-16 17:00N 43°33' E 010°18'0 0.0
2017-Aug-16 16:30N 43°33' E 010°18'0 0.0
2017-Aug-16 15:57N 43°33' E 010°18'0 0.0
2017-Aug-16 15:30N 43°33' E 010°18'0 0.0
2017-Aug-16 15:00N 43°33' E 010°18'0 0.0
2017-Aug-16 14:30N 43°33' E 010°18'0 0.0
2017-Aug-16 13:57N 43°33' E 010°18'0 0.0
2017-Aug-16 13:30N 43°33' E 010°18'0 0.0
2017-Aug-16 13:00N 43°33' E 010°18'0 0.0
2017-Aug-16 12:30N 43°33' E 010°18'0 0.0
2017-Aug-16 12:00N 43°33' E 010°18'0 0.0
2017-Aug-16 11:30N 43°33' E 010°18'0 0.0
2017-Aug-16 10:57N 43°33' E 010°18'0 0.0
2017-Aug-16 10:30N 43°33' E 010°18'0 0.0
2017-Aug-16 10:00N 43°33' E 010°18'0 0.0
2017-Aug-16 09:30N 43°33' E 010°18'0 0.0
2017-Aug-16 09:00N 43°33' E 010°18'0 0.0
2017-Aug-16 08:27N 43°33' E 010°18'0 0.0
2017-Aug-16 07:57N 43°33' E 010°18'0 0.0
2017-Aug-16 07:27N 43°33' E 010°18'0 0.0
2017-Aug-16 06:57N 43°33' E 010°18'0 0.0
2017-Aug-16 06:30N 43°33' E 010°18'0 0.0
2017-Aug-16 05:57N 43°33' E 010°18'0 0.2
2017-Aug-16 05:30N 43°33' E 010°18'3 5.0
2017-Aug-16 05:00N 43°31' E 010°16'510.4
2017-Aug-16 04:30N 43°27' E 010°12'510.5
2017-Aug-16 04:00N 43°22' E 010°11'611.2
2017-Aug-16 03:30N 43°16' E 010°09'611.2
2017-Aug-16 03:00N 43°11' E 010°07'510.6
2017-Aug-16 02:30N 43°06' E 010°06'510.2
2017-Aug-16 01:59N 43°00' E 010°05'510.1
2017-Aug-16 01:30N 42°56' E 010°04'510.3
2017-Aug-16 01:00N 42°51' E 010°02'510.6
2017-Aug-16 00:30N 42°45' E 010°01'611.4
2017-Aug-16 00:00N 42°41' E 010°06'1512.1
2017-Aug-15 22:48N 42°30' E 010°19'1215.1
2017-Aug-15 21:58N 42°21' E 010°30'2114.5
2017-Aug-15 20:32N 42°05' E 010°49'014.6
2017-Aug-15 20:30N 42°05' E 010°49'814.7
2017-Aug-15 19:59N 42°02' E 010°59'714.0
2017-Aug-15 19:29N 42°01' E 011°08'714.6
2017-Aug-15 19:00N 42°02' E 011°17'70 3.7
2017-Aug-15 00:27N 41°13' E 012°24'614.0
2017-Aug-15 00:00N 41°08' E 012°28'1514.1
2017-Aug-14 22:57N 40°56' E 012°41'614.2
2017-Aug-14 22:30N 40°51' E 012°46'2714.8
2017-Aug-14 20:40N 40°43' E 013°20'215.8
2017-Aug-14 20:31N 40°42' E 013°23'815.8
2017-Aug-14 20:01N 40°40' E 013°33'1215.4
2017-Aug-14 19:12N 40°38' E 013°49'315.1
2017-Aug-14 19:00N 40°37' E 013°53'815.4
2017-Aug-14 18:30N 40°38' E 014°03'815.4
2017-Aug-14 18:00N 40°43' E 014°10'714.8
2017-Aug-14 17:30N 40°49' E 014°17'2 3.6
2017-Aug-14 17:00N 40°50' E 014°15'0 0.0
2017-Aug-14 16:26N 40°50' E 014°15'0 0.0
2017-Aug-14 12:20N 40°50' E 014°15'0 0.0
2017-Aug-14 11:50N 40°50' E 014°15'0 0.0
2017-Aug-14 11:20N 40°50' E 014°15'0 0.0
2017-Aug-14 10:50N 40°50' E 014°15'0 0.0
2017-Aug-14 10:08N 40°50' E 014°15'0 0.0
2017-Aug-14 09:38N 40°50' E 014°15'0 0.0
2017-Aug-14 09:20N 40°50' E 014°15'0 0.0
2017-Aug-14 08:38N 40°50' E 014°15'0 0.0
2017-Aug-14 08:26N 40°50' E 014°15'0 0.0
2017-Aug-14 07:50N 40°50' E 014°15'0 0.0
2017-Aug-14 07:26N 40°50' E 014°15'0 0.0
2017-Aug-14 06:56N 40°50' E 014°15'0 0.2
2017-Aug-14 06:29N 40°50' E 014°15'2 4.5
2017-Aug-14 06:00N 40°48' E 014°17'5 9.7
2017-Aug-14 05:30N 40°45' E 014°13'10212.8
2017-Aug-13 21:33N 40°49' E 011°59'114.4
2017-Aug-13 21:30N 40°49' E 011°58'1214.9
2017-Aug-13 20:41N 40°53' E 011°43'315.0
2017-Aug-13 20:30N 40°53' E 011°39'1414.8
2017-Aug-13 19:34N 40°57' E 011°21'1114.7
2017-Aug-13 18:49N 40°60' E 011°08'715.1
2017-Aug-13 18:21N 41°02' E 010°58'3315.3
2017-Aug-13 16:11N 41°11' E 010°16'315.0
2017-Aug-13 16:00N 41°11' E 010°13'914.8
2017-Aug-13 15:22N 41°14' E 010°01'514.5
2017-Aug-13 15:00N 41°15' E 009°54'1514.6
2017-Aug-13 13:59N 41°19' E 009°35'7413.4
2017-Aug-13 08:29N 41°21' E 007°56'816.3
2017-Aug-13 08:00N 41°21' E 007°46'816.4
2017-Aug-13 07:30N 41°21' E 007°35'816.6
2017-Aug-13 07:00N 41°20' E 007°24'2515.9
2017-Aug-13 05:25N 41°20' E 006°51'1315.8
2017-Aug-13 04:37N 41°20' E 006°34'216.0
2017-Aug-13 04:30N 41°20' E 006°31'816.0
2017-Aug-13 04:00N 41°20' E 006°21'816.1
2017-Aug-13 03:30N 41°19' E 006°10'14816.6
2017-Aug-12 18:35N 41°17' E 002°53'116.3
2017-Aug-12 18:30N 41°17' E 002°51'816.3
2017-Aug-12 18:00N 41°17' E 002°41'1016.0
2017-Aug-12 17:24N 41°16' E 002°28'615.2
2017-Aug-12 17:00N 41°15' E 002°20'713.8
2017-Aug-12 16:29N 41°17' E 002°11'5 9.4
2017-Aug-12 16:00N 41°21' E 002°11'0 0.1
2017-Aug-12 13:12N 41°22' E 002°11'3 0.4
2017-Aug-12 05:55N 41°18' E 002°10'710.7
2017-Aug-12 05:17N 41°16' E 002°19'414.8
2017-Aug-12 05:00N 41°16' E 002°24'1015.9
2017-Aug-12 04:24N 41°17' E 002°37'12715.6
2017-Aug-11 20:16N 42°29' E 004°57'613.4
2017-Aug-11 19:51N 42°32' E 005°03'513.7
2017-Aug-11 19:30N 42°35' E 005°08'815.3
2017-Aug-11 19:01N 42°39' E 005°17'815.4
2017-Aug-11 18:30N 42°44' E 005°25'715.0
2017-Aug-11 18:00N 42°48' E 005°34'2413.5
2017-Aug-11 16:12N 43°05' E 005°58'2 9.2
2017-Aug-11 16:01N 43°05' E 005°56'2 3.0
2017-Aug-11 15:28N 43°06' E 005°54'0 0.0
2017-Aug-11 14:58N 43°06' E 005°54'0 0.0
2017-Aug-11 14:28N 43°06' E 005°54'0 0.0
2017-Aug-11 13:28N 43°06' E 005°54'0 0.0
2017-Aug-11 12:58N 43°06' E 005°54'0 0.0
2017-Aug-11 12:28N 43°06' E 005°54'0 0.0
2017-Aug-11 11:58N 43°06' E 005°54'0 0.0
2017-Aug-11 11:28N 43°06' E 005°54'0 0.0
2017-Aug-11 10:58N 43°06' E 005°54'0 0.0
2017-Aug-11 10:28N 43°06' E 005°54'0 0.0
2017-Aug-11 09:59N 43°06' E 005°54'0 0.0
2017-Aug-11 09:29N 43°06' E 005°54'0 0.0
2017-Aug-11 08:58N 43°06' E 005°54'0 0.0
2017-Aug-11 08:28N 43°06' E 005°54'0 0.0
2017-Aug-11 07:58N 43°06' E 005°54'0 0.0
2017-Aug-11 07:25N 43°06' E 005°54'0 0.0
2017-Aug-11 06:59N 43°06' E 005°54'0 0.0
2017-Aug-11 06:28N 43°06' E 005°54'0 0.0
2017-Aug-11 05:58N 43°06' E 005°54'0 0.0
2017-Aug-11 05:28N 43°06' E 005°54'0 0.0
2017-Aug-11 04:58N 43°06' E 005°54'0 0.0
2017-Aug-11 04:25N 43°06' E 005°54'0 0.0
2017-Aug-11 03:58N 43°06' E 005°54'0 0.0
2017-Aug-11 03:28N 43°06' E 005°54'0 0.0
2017-Aug-11 02:59N 43°06' E 005°54'0 0.0
2017-Aug-11 02:28N 43°06' E 005°54'0 0.0
2017-Aug-11 01:58N 43°06' E 005°54'0 0.0
2017-Aug-11 01:28N 43°06' E 005°54'0 0.0
2017-Aug-11 00:58N 43°06' E 005°54'0 0.0
2017-Aug-11 00:28N 43°06' E 005°54'0 0.0
2017-Aug-10 23:59N 43°06' E 005°54'0 0.0
2017-Aug-10 23:28N 43°06' E 005°54'0 0.0
2017-Aug-10 22:58N 43°06' E 005°54'0 0.0
2017-Aug-10 22:28N 43°06' E 005°54'0 0.0
2017-Aug-10 21:58N 43°06' E 005°54'0 0.0
2017-Aug-10 21:29N 43°06' E 005°54'0 0.0
2017-Aug-10 20:58N 43°06' E 005°54'0 0.0
2017-Aug-10 20:25N 43°06' E 005°54'0 0.0
2017-Aug-10 19:55N 43°06' E 005°54'0 0.0
2017-Aug-10 19:28N 43°06' E 005°54'0 0.0
2017-Aug-10 18:58N 43°06' E 005°54'0 0.0
2017-Aug-10 18:28N 43°06' E 005°54'0 0.0
2017-Aug-10 17:58N 43°06' E 005°54'0 0.0
2017-Aug-10 17:28N 43°06' E 005°54'0 0.0
2017-Aug-10 16:59N 43°06' E 005°54'0 0.5
2017-Aug-10 16:31N 43°07' E 005°54'3 5.7
2017-Aug-10 16:00N 43°05' E 005°58'612.6
2017-Aug-10 15:30N 43°01' E 006°04'42 7.5
2017-Aug-10 09:54N 42°57' E 007°01'3 6.8
2017-Aug-10 09:30N 42°58' E 007°05'3 6.6
2017-Aug-10 09:00N 42°58' E 007°09'3 6.9
2017-Aug-10 08:30N 42°59' E 007°14'3 6.8
2017-Aug-10 08:00N 42°59' E 007°19'3 6.7
2017-Aug-10 07:30N 42°59' E 007°23'5 7.2
2017-Aug-10 06:50N 42°60' E 007°30'2 7.3
2017-Aug-10 06:30N 42°60' E 007°33'4 7.5
2017-Aug-10 06:00N 43°00' E 007°38'4 7.8
2017-Aug-10 05:30N 43°01' E 007°43'510.8
2017-Aug-10 05:00N 43°02' E 007°51'510.8
2017-Aug-10 04:30N 43°03' E 007°58'710.5
2017-Aug-10 03:48N 43°05' E 008°08'310.6
2017-Aug-10 03:30N 43°06' E 008°12'510.7
2017-Aug-10 03:00N 43°08' E 008°19'510.6
2017-Aug-10 02:30N 43°10' E 008°25'510.6
2017-Aug-10 02:00N 43°11' E 008°32'510.6
2017-Aug-10 01:30N 43°13' E 008°39'510.8
2017-Aug-10 01:00N 43°15' E 008°46'510.8
2017-Aug-10 00:30N 43°17' E 008°53'611.1
2017-Aug-10 00:00N 43°19' E 008°60'611.2
2017-Aug-09 23:30N 43°21' E 009°07'611.3
2017-Aug-09 23:00N 43°23' E 009°14'611.5
2017-Aug-09 22:30N 43°25' E 009°22'611.4
2017-Aug-09 22:00N 43°27' E 009°29'611.1
2017-Aug-09 21:30N 43°29' E 009°36'510.8
2017-Aug-09 21:00N 43°30' E 009°44'511.0
2017-Aug-09 20:30N 43°31' E 009°51'510.8
2017-Aug-09 20:00N 43°31' E 009°59'611.4
2017-Aug-09 19:30N 43°30' E 010°06'510.6
2017-Aug-09 19:00N 43°32' E 010°14'3 6.8
2017-Aug-09 18:30N 43°33' E 010°18'0 0.4
2017-Aug-09 17:57N 43°33' E 010°18'0 0.0
2017-Aug-09 17:27N 43°33' E 010°18'0 0.0
2017-Aug-09 17:00N 43°33' E 010°18'0 0.0
2017-Aug-09 16:27N 43°33' E 010°18'0 0.0
2017-Aug-09 16:00N 43°33' E 010°18'0 0.0
2017-Aug-09 15:30N 43°33' E 010°18'0 0.0
2017-Aug-09 15:00N 43°33' E 010°18'0 0.0
2017-Aug-09 14:30N 43°33' E 010°18'0 0.0
2017-Aug-09 14:00N 43°33' E 010°18'0 0.0
2017-Aug-09 13:30N 43°33' E 010°18'0 0.0
2017-Aug-09 13:00N 43°33' E 010°18'0 0.0
2017-Aug-09 12:30N 43°33' E 010°18'0 0.0
2017-Aug-09 11:57N 43°33' E 010°18'0 0.0
2017-Aug-09 11:30N 43°33' E 010°18'0 0.0
2017-Aug-09 11:00N 43°33' E 010°18'0 0.0
2017-Aug-09 10:27N 43°33' E 010°18'0 0.0
2017-Aug-09 10:00N 43°33' E 010°18'0 0.0
2017-Aug-09 09:30N 43°33' E 010°18'0 0.0
2017-Aug-09 09:00N 43°33' E 010°18'0 0.0
2017-Aug-09 08:30N 43°33' E 010°18'0 0.0
2017-Aug-09 08:00N 43°33' E 010°18'0 0.0
2017-Aug-09 07:30N 43°33' E 010°18'0 0.0
2017-Aug-09 07:00N 43°33' E 010°18'0 0.0
2017-Aug-09 06:27N 43°33' E 010°18'0 0.0
2017-Aug-09 05:57N 43°33' E 010°18'0 0.0
2017-Aug-09 05:31N 43°33' E 010°18'2 3.4
2017-Aug-09 05:01N 43°32' E 010°17'4 8.3
2017-Aug-09 04:31N 43°29' E 010°13'4 8.6
2017-Aug-09 04:01N 43°24' E 010°12'611.5
2017-Aug-09 03:31N 43°19' E 010°10'611.5
2017-Aug-09 03:00N 43°13' E 010°09'611.3
2017-Aug-09 02:30N 43°08' E 010°07'1011.0
2017-Aug-09 01:37N 42°58' E 010°04'111.1
2017-Aug-09 01:30N 42°57' E 010°04'611.3
2017-Aug-09 00:59N 42°51' E 010°02'2411.7
2017-Aug-08 22:57N 42°31' E 010°18'714.6
2017-Aug-08 22:27N 42°26' E 010°25'1114.7
2017-Aug-08 21:44N 42°17' E 010°34'314.8
2017-Aug-08 21:30N 42°15' E 010°37'715.0
2017-Aug-08 21:00N 42°09' E 010°44'714.8
2017-Aug-08 20:30N 42°04' E 010°51'715.0
2017-Aug-08 20:00N 42°01' E 011°00'714.4
2017-Aug-08 19:30N 42°01' E 011°10'714.7
2017-Aug-08 19:00N 42°02' E 011°20'21 2.6
2017-Aug-08 11:07N 42°05' E 011°47'0 0.0
2017-Aug-08 10:34N 42°05' E 011°47'0 0.0
2017-Aug-08 08:49N 42°05' E 011°47'0 0.0
2017-Aug-08 06:19N 42°05' E 011°47'0 0.0
2017-Aug-08 05:58N 42°05' E 011°47'1 1.4
2017-Aug-08 05:30N 42°06' E 011°47'3 4.3
2017-Aug-08 04:47N 42°05' E 011°43'1912.7
2017-Aug-08 03:17N 41°47' E 011°52'414.5
2017-Aug-08 03:00N 41°44' E 011°55'814.5
2017-Aug-08 02:25N 41°37' E 012°02'614.5
2017-Aug-08 02:00N 41°32' E 012°07'814.3
2017-Aug-08 01:28N 41°26' E 012°12'1214.2
2017-Aug-08 00:38N 41°16' E 012°21'214.2
2017-Aug-08 00:30N 41°14' E 012°22'914.4
2017-Aug-07 23:54N 41°07' E 012°29'1713.9
2017-Aug-07 22:40N 40°54' E 012°43'215.1
2017-Aug-07 22:30N 40°52' E 012°45'815.3
2017-Aug-07 22:00N 40°48' E 012°54'815.9
2017-Aug-07 21:30N 40°46' E 013°04'816.1
2017-Aug-07 21:00N 40°44' E 013°14'816.0
2017-Aug-07 20:29N 40°42' E 013°25'2915.8
2017-Aug-07 18:41N 40°38' E 014°02'316.2
2017-Aug-07 18:29N 40°41' E 014°05'714.5
2017-Aug-07 17:59N 40°45' E 014°13'6 0.5
2017-Aug-07 06:09N 40°50' E 014°16'2 5.9
2017-Aug-07 05:51N 40°48' E 014°17'4110.7
2017-Aug-07 02:02N 40°32' E 013°27'  
Track history (hours):
 
Tides and Currents Weather Stations Pressure Air Temp Water Temp Dewpoint Dewpoint Depression Visibility Wind Speed Wind Dir Waves Ship Positions

Sovereign

Last reported at 2017-Aug-17 02:00 UTC. Time now 2017-Aug-17 02:07 UTC.
Position N 43°30' E 007°48'.

Length 268 m; draft 7.7 m.

Type: Passenger vessel. MMSI: 249539000.

Date/timePositionNaut miles runAvg speedWind from/ knotsBaromVisibWave heightAir tempDewpointWater temp
2017-Aug-17 02:00N 43°30' E 007°48'713.2
2017-Aug-17 01:30N 43°30' E 007°57'814.7
2017-Aug-17 00:58N 43°30' E 008°08'714.5
2017-Aug-17 00:30N 43°30' E 008°17'714.3
2017-Aug-17 00:00N 43°31' E 008°27'714.3
2017-Aug-16 23:30N 43°31' E 008°36'714.2
2017-Aug-16 23:00N 43°31' E 008°46'714.2
2017-Aug-16 22:30N 43°31' E 008°56'714.2
2017-Aug-16 22:00N 43°31' E 009°06'714.0
2017-Aug-16 21:31N 43°31' E 009°16'713.5
2017-Aug-16 21:01N 43°32' E 009°25'713.9
2017-Aug-16 20:30N 43°31' E 009°34'815.7
2017-Aug-16 20:00N 43°31' E 009°45'815.7
2017-Aug-16 19:30N 43°31' E 009°56'815.5
2017-Aug-16 19:00N 43°31' E 010°07'714.3
2017-Aug-16 18:30N 43°32' E 010°16'2 3.2
2017-Aug-16 18:00N 43°33' E 010°18'0 0.1
2017-Aug-16 17:30N 43°33' E 010°18'0 0.0
2017-Aug-16 17:00N 43°33' E 010°18'0 0.0
2017-Aug-16 16:30N 43°33' E 010°18'0 0.0
2017-Aug-16 15:57N 43°33' E 010°18'0 0.0
2017-Aug-16 15:30N 43°33' E 010°18'0 0.0
2017-Aug-16 15:00N 43°33' E 010°18'0 0.0
2017-Aug-16 14:30N 43°33' E 010°18'0 0.0
2017-Aug-16 13:57N 43°33' E 010°18'0 0.0
2017-Aug-16 13:30N 43°33' E 010°18'0 0.0
2017-Aug-16 13:00N 43°33' E 010°18'0 0.0
2017-Aug-16 12:30N 43°33' E 010°18'0 0.0
2017-Aug-16 12:00N 43°33' E 010°18'0 0.0
2017-Aug-16 11:30N 43°33' E 010°18'0 0.0
2017-Aug-16 10:57N 43°33' E 010°18'0 0.0
2017-Aug-16 10:30N 43°33' E 010°18'0 0.0
2017-Aug-16 10:00N 43°33' E 010°18'0 0.0
2017-Aug-16 09:30N 43°33' E 010°18'0 0.0
2017-Aug-16 09:00N 43°33' E 010°18'0 0.0
2017-Aug-16 08:27N 43°33' E 010°18'0 0.0
2017-Aug-16 07:57N 43°33' E 010°18'0 0.0
2017-Aug-16 07:27N 43°33' E 010°18'0 0.0
2017-Aug-16 06:57N 43°33' E 010°18'0 0.0
2017-Aug-16 06:30N 43°33' E 010°18'0 0.0
2017-Aug-16 05:57N 43°33' E 010°18'0 0.2
2017-Aug-16 05:30N 43°33' E 010°18'3 5.0
2017-Aug-16 05:00N 43°31' E 010°16'510.4
2017-Aug-16 04:30N 43°27' E 010°12'510.5
2017-Aug-16 04:00N 43°22' E 010°11'611.2
2017-Aug-16 03:30N 43°16' E 010°09'611.2
2017-Aug-16 03:00N 43°11' E 010°07'510.6
2017-Aug-16 02:30N 43°06' E 010°06'510.2
2017-Aug-16 01:59N 43°00' E 010°05'510.1
2017-Aug-16 01:30N 42°56' E 010°04'510.3
2017-Aug-16 01:00N 42°51' E 010°02'510.6
2017-Aug-16 00:30N 42°45' E 010°01'611.4
2017-Aug-16 00:00N 42°41' E 010°06'1512.1
2017-Aug-15 22:48N 42°30' E 010°19'1215.1
2017-Aug-15 21:58N 42°21' E 010°30'2114.5
2017-Aug-15 20:32N 42°05' E 010°49'014.6
2017-Aug-15 20:30N 42°05' E 010°49'814.7
2017-Aug-15 19:59N 42°02' E 010°59'714.0
2017-Aug-15 19:29N 42°01' E 011°08'714.6
2017-Aug-15 19:00N 42°02' E 011°17'70 3.7
2017-Aug-15 00:27N 41°13' E 012°24'614.0
2017-Aug-15 00:00N 41°08' E 012°28'1514.1
2017-Aug-14 22:57N 40°56' E 012°41'614.2
2017-Aug-14 22:30N 40°51' E 012°46'2714.8
2017-Aug-14 20:40N 40°43' E 013°20'215.8
2017-Aug-14 20:31N 40°42' E 013°23'815.8
2017-Aug-14 20:01N 40°40' E 013°33'1215.4
2017-Aug-14 19:12N 40°38' E 013°49'315.1
2017-Aug-14 19:00N 40°37' E 013°53'815.4
2017-Aug-14 18:30N 40°38' E 014°03'815.4
2017-Aug-14 18:00N 40°43' E 014°10'714.8
2017-Aug-14 17:30N 40°49' E 014°17'2 3.6
2017-Aug-14 17:00N 40°50' E 014°15'0 0.0
2017-Aug-14 16:26N 40°50' E 014°15'0 0.0
2017-Aug-14 12:20N 40°50' E 014°15'0 0.0
2017-Aug-14 11:50N 40°50' E 014°15'0 0.0
2017-Aug-14 11:20N 40°50' E 014°15'0 0.0
2017-Aug-14 10:50N 40°50' E 014°15'0 0.0
2017-Aug-14 10:08N 40°50' E 014°15'0 0.0
2017-Aug-14 09:38N 40°50' E 014°15'0 0.0
2017-Aug-14 09:20N 40°50' E 014°15'0 0.0
2017-Aug-14 08:38N 40°50' E 014°15'0 0.0
2017-Aug-14 08:26N 40°50' E 014°15'0 0.0
2017-Aug-14 07:50N 40°50' E 014°15'0 0.0
2017-Aug-14 07:26N 40°50' E 014°15'0 0.0
2017-Aug-14 06:56N 40°50' E 014°15'0 0.2
2017-Aug-14 06:29N 40°50' E 014°15'2 4.5
2017-Aug-14 06:00N 40°48' E 014°17'5 9.7
2017-Aug-14 05:30N 40°45' E 014°13'10212.8
2017-Aug-13 21:33N 40°49' E 011°59'114.4
2017-Aug-13 21:30N 40°49' E 011°58'1214.9
2017-Aug-13 20:41N 40°53' E 011°43'315.0
2017-Aug-13 20:30N 40°53' E 011°39'1414.8
2017-Aug-13 19:34N 40°57' E 011°21'1114.7
2017-Aug-13 18:49N 40°60' E 011°08'715.1
2017-Aug-13 18:21N 41°02' E 010°58'3315.3
2017-Aug-13 16:11N 41°11' E 010°16'315.0
2017-Aug-13 16:00N 41°11' E 010°13'914.8
2017-Aug-13 15:22N 41°14' E 010°01'514.5
2017-Aug-13 15:00N 41°15' E 009°54'1514.6
2017-Aug-13 13:59N 41°19' E 009°35'7413.4
2017-Aug-13 08:29N 41°21' E 007°56'816.3
2017-Aug-13 08:00N 41°21' E 007°46'816.4
2017-Aug-13 07:30N 41°21' E 007°35'816.6
2017-Aug-13 07:00N 41°20' E 007°24'2515.9
2017-Aug-13 05:25N 41°20' E 006°51'1315.8
2017-Aug-13 04:37N 41°20' E 006°34'216.0
2017-Aug-13 04:30N 41°20' E 006°31'816.0
2017-Aug-13 04:00N 41°20' E 006°21'816.1
2017-Aug-13 03:30N 41°19' E 006°10'14816.6
2017-Aug-12 18:35N 41°17' E 002°53'116.3
2017-Aug-12 18:30N 41°17' E 002°51'816.3
2017-Aug-12 18:00N 41°17' E 002°41'1016.0
2017-Aug-12 17:24N 41°16' E 002°28'615.2
2017-Aug-12 17:00N 41°15' E 002°20'713.8
2017-Aug-12 16:29N 41°17' E 002°11'5 9.4
2017-Aug-12 16:00N 41°21' E 002°11'0 0.1
2017-Aug-12 13:12N 41°22' E 002°11'3 0.4
2017-Aug-12 05:55N 41°18' E 002°10'710.7
2017-Aug-12 05:17N 41°16' E 002°19'414.8
2017-Aug-12 05:00N 41°16' E 002°24'1015.9
2017-Aug-12 04:24N 41°17' E 002°37'12715.6
2017-Aug-11 20:16N 42°29' E 004°57'613.4
2017-Aug-11 19:51N 42°32' E 005°03'513.7
2017-Aug-11 19:30N 42°35' E 005°08'815.3
2017-Aug-11 19:01N 42°39' E 005°17'815.4
2017-Aug-11 18:30N 42°44' E 005°25'715.0
2017-Aug-11 18:00N 42°48' E 005°34'2413.5
2017-Aug-11 16:12N 43°05' E 005°58'2 9.2
2017-Aug-11 16:01N 43°05' E 005°56'2 3.0
2017-Aug-11 15:28N 43°06' E 005°54'0 0.0
2017-Aug-11 14:58N 43°06' E 005°54'0 0.0
2017-Aug-11 14:28N 43°06' E 005°54'0 0.0
2017-Aug-11 13:28N 43°06' E 005°54'0 0.0
2017-Aug-11 12:58N 43°06' E 005°54'0 0.0
2017-Aug-11 12:28N 43°06' E 005°54'0 0.0
2017-Aug-11 11:58N 43°06' E 005°54'0 0.0
2017-Aug-11 11:28N 43°06' E 005°54'0 0.0
2017-Aug-11 10:58N 43°06' E 005°54'0 0.0
2017-Aug-11 10:28N 43°06' E 005°54'0 0.0
2017-Aug-11 09:59N 43°06' E 005°54'0 0.0
2017-Aug-11 09:29N 43°06' E 005°54'0 0.0
2017-Aug-11 08:58N 43°06' E 005°54'0 0.0
2017-Aug-11 08:28N 43°06' E 005°54'0 0.0
2017-Aug-11 07:58N 43°06' E 005°54'0 0.0
2017-Aug-11 07:25N 43°06' E 005°54'0 0.0
2017-Aug-11 06:59N 43°06' E 005°54'0 0.0
2017-Aug-11 06:28N 43°06' E 005°54'0 0.0
2017-Aug-11 05:58N 43°06' E 005°54'0 0.0
2017-Aug-11 05:28N 43°06' E 005°54'0 0.0
2017-Aug-11 04:58N 43°06' E 005°54'0 0.0
2017-Aug-11 04:25N 43°06' E 005°54'0 0.0
2017-Aug-11 03:58N 43°06' E 005°54'0 0.0
2017-Aug-11 03:28N 43°06' E 005°54'0 0.0
2017-Aug-11 02:59N 43°06' E 005°54'0 0.0
2017-Aug-11 02:28N 43°06' E 005°54'0 0.0
2017-Aug-11 01:58N 43°06' E 005°54'0 0.0
2017-Aug-11 01:28N 43°06' E 005°54'0 0.0
2017-Aug-11 00:58N 43°06' E 005°54'0 0.0
2017-Aug-11 00:28N 43°06' E 005°54'0 0.0
2017-Aug-10 23:59N 43°06' E 005°54'0 0.0
2017-Aug-10 23:28N 43°06' E 005°54'0 0.0
2017-Aug-10 22:58N 43°06' E 005°54'0 0.0
2017-Aug-10 22:28N 43°06' E 005°54'0 0.0
2017-Aug-10 21:58N 43°06' E 005°54'0 0.0
2017-Aug-10 21:29N 43°06' E 005°54'0 0.0
2017-Aug-10 20:58N 43°06' E 005°54'0 0.0
2017-Aug-10 20:25N 43°06' E 005°54'0 0.0
2017-Aug-10 19:55N 43°06' E 005°54'0 0.0
2017-Aug-10 19:28N 43°06' E 005°54'0 0.0
2017-Aug-10 18:58N 43°06' E 005°54'0 0.0
2017-Aug-10 18:28N 43°06' E 005°54'0 0.0
2017-Aug-10 17:58N 43°06' E 005°54'0 0.0
2017-Aug-10 17:28N 43°06' E 005°54'0 0.0
2017-Aug-10 16:59N 43°06' E 005°54'0 0.5
2017-Aug-10 16:31N 43°07' E 005°54'3 5.7
2017-Aug-10 16:00N 43°05' E 005°58'612.6
2017-Aug-10 15:30N 43°01' E 006°04'42 7.5
2017-Aug-10 09:54N 42°57' E 007°01'3 6.8
2017-Aug-10 09:30N 42°58' E 007°05'3 6.6
2017-Aug-10 09:00N 42°58' E 007°09'3 6.9
2017-Aug-10 08:30N 42°59' E 007°14'3 6.8
2017-Aug-10 08:00N 42°59' E 007°19'3 6.7
2017-Aug-10 07:30N 42°59' E 007°23'5 7.2
2017-Aug-10 06:50N 42°60' E 007°30'2 7.3
2017-Aug-10 06:30N 42°60' E 007°33'4 7.5
2017-Aug-10 06:00N 43°00' E 007°38'4 7.8
2017-Aug-10 05:30N 43°01' E 007°43'510.8
2017-Aug-10 05:00N 43°02' E 007°51'510.8
2017-Aug-10 04:30N 43°03' E 007°58'710.5
2017-Aug-10 03:48N 43°05' E 008°08'310.6
2017-Aug-10 03:30N 43°06' E 008°12'510.7
2017-Aug-10 03:00N 43°08' E 008°19'510.6
2017-Aug-10 02:30N 43°10' E 008°25'510.6
2017-Aug-10 02:00N 43°11' E 008°32'510.6
2017-Aug-10 01:30N 43°13' E 008°39'510.8
2017-Aug-10 01:00N 43°15' E 008°46'510.8
2017-Aug-10 00:30N 43°17' E 008°53'611.1
2017-Aug-10 00:00N 43°19' E 008°60'611.2
2017-Aug-09 23:30N 43°21' E 009°07'611.3
2017-Aug-09 23:00N 43°23' E 009°14'611.5
2017-Aug-09 22:30N 43°25' E 009°22'611.4
2017-Aug-09 22:00N 43°27' E 009°29'611.1
2017-Aug-09 21:30N 43°29' E 009°36'510.8
2017-Aug-09 21:00N 43°30' E 009°44'511.0
2017-Aug-09 20:30N 43°31' E 009°51'510.8
2017-Aug-09 20:00N 43°31' E 009°59'611.4
2017-Aug-09 19:30N 43°30' E 010°06'510.6
2017-Aug-09 19:00N 43°32' E 010°14'3 6.8
2017-Aug-09 18:30N 43°33' E 010°18'0 0.4
2017-Aug-09 17:57N 43°33' E 010°18'0 0.0
2017-Aug-09 17:27N 43°33' E 010°18'0 0.0
2017-Aug-09 17:00N 43°33' E 010°18'0 0.0
2017-Aug-09 16:27N 43°33' E 010°18'0 0.0
2017-Aug-09 16:00N 43°33' E 010°18'0 0.0
2017-Aug-09 15:30N 43°33' E 010°18'0 0.0
2017-Aug-09 15:00N 43°33' E 010°18'0 0.0
2017-Aug-09 14:30N 43°33' E 010°18'0 0.0
2017-Aug-09 14:00N 43°33' E 010°18'0 0.0
2017-Aug-09 13:30N 43°33' E 010°18'0 0.0
2017-Aug-09 13:00N 43°33' E 010°18'0 0.0
2017-Aug-09 12:30N 43°33' E 010°18'0 0.0
2017-Aug-09 11:57N 43°33' E 010°18'0 0.0
2017-Aug-09 11:30N 43°33' E 010°18'0 0.0
2017-Aug-09 11:00N 43°33' E 010°18'0 0.0
2017-Aug-09 10:27N 43°33' E 010°18'0 0.0
2017-Aug-09 10:00N 43°33' E 010°18'0 0.0
2017-Aug-09 09:30N 43°33' E 010°18'0 0.0
2017-Aug-09 09:00N 43°33' E 010°18'0 0.0
2017-Aug-09 08:30N 43°33' E 010°18'0 0.0
2017-Aug-09 08:00N 43°33' E 010°18'0 0.0
2017-Aug-09 07:30N 43°33' E 010°18'0 0.0
2017-Aug-09 07:00N 43°33' E 010°18'0 0.0
2017-Aug-09 06:27N 43°33' E 010°18'0 0.0
2017-Aug-09 05:57N 43°33' E 010°18'0 0.0
2017-Aug-09 05:31N 43°33' E 010°18'2 3.4
2017-Aug-09 05:01N 43°32' E 010°17'4 8.3
2017-Aug-09 04:31N 43°29' E 010°13'4 8.6
2017-Aug-09 04:01N 43°24' E 010°12'611.5
2017-Aug-09 03:31N 43°19' E 010°10'611.5
2017-Aug-09 03:00N 43°13' E 010°09'611.3
2017-Aug-09 02:30N 43°08' E 010°07'1011.0
2017-Aug-09 01:37N 42°58' E 010°04'111.1
2017-Aug-09 01:30N 42°57' E 010°04'611.3
2017-Aug-09 00:59N 42°51' E 010°02'2411.7
2017-Aug-08 22:57N 42°31' E 010°18'714.6
2017-Aug-08 22:27N 42°26' E 010°25'1114.7
2017-Aug-08 21:44N 42°17' E 010°34'314.8
2017-Aug-08 21:30N 42°15' E 010°37'715.0
2017-Aug-08 21:00N 42°09' E 010°44'714.8
2017-Aug-08 20:30N 42°04' E 010°51'715.0
2017-Aug-08 20:00N 42°01' E 011°00'714.4
2017-Aug-08 19:30N 42°01' E 011°10'714.7
2017-Aug-08 19:00N 42°02' E 011°20'21 2.6
2017-Aug-08 11:07N 42°05' E 011°47'0 0.0
2017-Aug-08 10:34N 42°05' E 011°47'0 0.0
2017-Aug-08 08:49N 42°05' E 011°47'0 0.0
2017-Aug-08 06:19N 42°05' E 011°47'0 0.0
2017-Aug-08 05:58N 42°05' E 011°47'1 1.4
2017-Aug-08 05:30N 42°06' E 011°47'3 4.3
2017-Aug-08 04:47N 42°05' E 011°43'1912.7
2017-Aug-08 03:17N 41°47' E 011°52'414.5
2017-Aug-08 03:00N 41°44' E 011°55'814.5
2017-Aug-08 02:25N 41°37' E 012°02'614.5
2017-Aug-08 02:00N 41°32' E 012°07'814.3
2017-Aug-08 01:28N 41°26' E 012°12'1214.2
2017-Aug-08 00:38N 41°16' E 012°21'214.2
2017-Aug-08 00:30N 41°14' E 012°22'914.4
2017-Aug-07 23:54N 41°07' E 012°29'1713.9
2017-Aug-07 22:40N 40°54' E 012°43'215.1
2017-Aug-07 22:30N 40°52' E 012°45'815.3
2017-Aug-07 22:00N 40°48' E 012°54'815.9
2017-Aug-07 21:30N 40°46' E 013°04'816.1
2017-Aug-07 21:00N 40°44' E 013°14'816.0
2017-Aug-07 20:29N 40°42' E 013°25'2915.8
2017-Aug-07 18:41N 40°38' E 014°02'316.2
2017-Aug-07 18:29N 40°41' E 014°05'714.5
2017-Aug-07 17:59N 40°45' E 014°13'6 0.5
2017-Aug-07 06:09N 40°50' E 014°16'2 5.9
2017-Aug-07 05:51N 40°48' E 014°17'4110.7
2017-Aug-07 02:02N 40°32' E 013°27'  

Dump ship's entire track history